Impala Gamarra — HKND4_ — position and weather

sailwx.info

Track history (hours):
 
Tides and Currents Weather Stations Pressure Air Temp Water Temp Dewpoint Dewpoint Depression Visibility Wind Speed Wind Dir Waves Ship Positions

Impala Gamarra

Last reported at 2018-Apr-20 01:22 UTC. Time now 2018-Apr-26 06:03 UTC.
Position N 10°09' W 075°30'.

Type: Ship. MMSI: 730151803.

Date/timePositionNaut miles runAvg speedWind from/ knotsBaromVisibWave heightAir tempDewpointWater temp
2018-Apr-20 01:22N 10°09' W 075°30'2 4.1
2018-Apr-20 01:00N 10°10' W 075°30'2 3.4
2018-Apr-20 00:30N 10°12' W 075°31'5 3.1
2018-Apr-19 22:56N 10°17' W 075°31'2 0.1
2018-Apr-18 22:14N 10°17' W 075°33'0 0.1
2018-Apr-18 21:54N 10°17' W 075°33'1 1.3
2018-Apr-18 21:29N 10°18' W 075°33'2 3.3
2018-Apr-18 20:57N 10°18' W 075°31'0 0.3
2018-Apr-18 20:30N 10°18' W 075°31'0 0.0
2018-Apr-18 19:55N 10°18' W 075°31'0 0.0
2018-Apr-18 19:22N 10°18' W 075°31'0 0.0
2018-Apr-18 19:00N 10°18' W 075°31'0 0.0
2018-Apr-18 18:30N 10°18' W 075°31'1 1.4
2018-Apr-18 18:00N 10°19' W 075°31'2 3.0
2018-Apr-18 17:28N 10°18' W 075°33'1 1.3
2018-Apr-18 17:00N 10°17' W 075°33'0 0.3
2018-Apr-18 16:30N 10°17' W 075°32'0 0.7
2018-Apr-18 15:58N 10°18' W 075°33'0 0.7
2018-Apr-18 15:28N 10°17' W 075°33'0 0.1
2018-Apr-18 15:00N 10°17' W 075°32'0 1.0
2018-Apr-18 14:30N 10°18' W 075°33'0 0.0
2018-Apr-18 14:00N 10°18' W 075°33'0 0.0
2018-Apr-18 13:30N 10°18' W 075°33'0 0.1
2018-Apr-18 13:00N 10°18' W 075°33'0 0.1
2018-Apr-18 12:30N 10°17' W 075°33'0 0.1
2018-Apr-18 12:00N 10°17' W 075°33'0 0.1
2018-Apr-18 11:29N 10°18' W 075°33'0 0.0
2018-Apr-18 11:00N 10°18' W 075°33'0 0.1
2018-Apr-18 10:30N 10°18' W 075°33'0 0.0
2018-Apr-18 10:00N 10°18' W 075°33'0 0.0
2018-Apr-18 09:30N 10°18' W 075°33'0 0.0
2018-Apr-18 09:00N 10°18' W 075°33'0 0.0
2018-Apr-18 08:30N 10°18' W 075°33'0 0.1
2018-Apr-18 08:00N 10°18' W 075°33'0 0.1
2018-Apr-18 07:30N 10°18' W 075°33'0 0.3
2018-Apr-18 07:00N 10°18' W 075°33'0 0.1
2018-Apr-18 06:30N 10°18' W 075°33'0 0.0
2018-Apr-18 06:00N 10°17' W 075°33'0 0.0
2018-Apr-18 05:30N 10°17' W 075°33'0 0.0
2018-Apr-18 05:00N 10°17' W 075°33'0 0.0
2018-Apr-18 04:30N 10°17' W 075°33'0 0.0
2018-Apr-18 04:00N 10°17' W 075°33'0 0.0
2018-Apr-18 03:30N 10°17' W 075°33'0 0.0
2018-Apr-18 03:00N 10°17' W 075°33'0 0.0
2018-Apr-18 02:30N 10°17' W 075°33'0 0.0
2018-Apr-18 02:00N 10°18' W 075°33'0 0.0
2018-Apr-18 01:30N 10°17' W 075°33'0 0.1
2018-Apr-18 00:59N 10°17' W 075°33'0 0.1
2018-Apr-18 00:30N 10°18' W 075°33'0 0.4
2018-Apr-18 00:00N 10°18' W 075°33'2 4.0
2018-Apr-17 23:28N 10°18' W 075°31'0 0.3
2018-Apr-17 22:46N 10°18' W 075°31'0 0.0
2018-Apr-17 22:12N 10°18' W 075°31'0 0.0
2018-Apr-17 21:54N 10°18' W 075°31'0 0.0
2018-Apr-17 21:30N 10°18' W 075°31'0 0.0
2018-Apr-17 21:00N 10°18' W 075°31'0 0.0
2018-Apr-17 20:30N 10°18' W 075°31'0 0.0
2018-Apr-17 19:34N 10°18' W 075°31'0 0.0
2018-Apr-17 19:18N 10°18' W 075°31'0 0.0
2018-Apr-17 19:00N 10°18' W 075°31'0 0.0
2018-Apr-17 18:30N 10°18' W 075°31'0 0.0
2018-Apr-17 17:58N 10°18' W 075°31'0 0.0
2018-Apr-17 17:30N 10°18' W 075°31'0 0.0
2018-Apr-17 17:00N 10°18' W 075°31'0 0.0
2018-Apr-17 16:25N 10°18' W 075°31'1 3.5
2018-Apr-17 16:00N 10°19' W 075°32'2 3.9
2018-Apr-17 15:30N 10°17' W 075°32'0 0.0
2018-Apr-17 15:00N 10°17' W 075°32'0 0.2
2018-Apr-17 14:28N 10°17' W 075°33'0 0.7
2018-Apr-17 14:00N 10°18' W 075°33'0 0.1
2018-Apr-17 13:27N 10°17' W 075°33'0 0.2
2018-Apr-17 13:00N 10°18' W 075°33'0 0.0
2018-Apr-17 12:29N 10°18' W 075°33'0 0.1
2018-Apr-17 12:00N 10°18' W 075°33'0 0.0
2018-Apr-17 11:30N 10°18' W 075°33'0 0.1
2018-Apr-17 11:00N 10°18' W 075°33'0 0.3
2018-Apr-17 10:30N 10°18' W 075°33'0 0.0
2018-Apr-17 10:00N 10°18' W 075°33'0 0.0
2018-Apr-17 09:29N 10°18' W 075°33'0 0.0
2018-Apr-17 09:00N 10°18' W 075°33'0 0.1
2018-Apr-17 08:30N 10°18' W 075°33'1 3.0
2018-Apr-17 08:00N 10°19' W 075°32'1 2.9
2018-Apr-17 07:30N 10°18' W 075°32'2 4.9
2018-Apr-17 07:00N 10°15' W 075°31'0 0.2
2018-Apr-17 06:30N 10°15' W 075°31'0 0.0
2018-Apr-17 05:52N 10°15' W 075°31'0 0.0
2018-Apr-17 05:28N 10°15' W 075°31'0 0.0
2018-Apr-17 04:58N 10°15' W 075°31'0 0.0
2018-Apr-17 04:30N 10°15' W 075°31'0 0.0
2018-Apr-17 03:58N 10°15' W 075°31'0 0.0
2018-Apr-17 03:25N 10°15' W 075°31'0 0.0
2018-Apr-17 02:40N 10°15' W 075°31'0 0.0
2018-Apr-17 02:30N 10°15' W 075°31'0 0.0
2018-Apr-17 01:59N 10°15' W 075°31'0 0.0
2018-Apr-17 01:30N 10°15' W 075°31'0 0.0
2018-Apr-17 00:58N 10°15' W 075°31'2 4.2
2018-Apr-17 00:30N 10°17' W 075°31'2 3.6
2018-Apr-17 00:00N 10°19' W 075°33'1 2.4
2018-Apr-16 23:29N 10°17' W 075°32'0 0.2
2018-Apr-16 22:59N 10°17' W 075°33'0 0.6
2018-Apr-16 22:30N 10°17' W 075°33'0 0.1
2018-Apr-16 22:00N 10°17' W 075°33'0 0.2
2018-Apr-16 21:30N 10°17' W 075°33'0 0.2
2018-Apr-16 21:00N 10°18' W 075°33'0 0.2
2018-Apr-16 20:30N 10°17' W 075°33'0 0.2
2018-Apr-16 19:59N 10°18' W 075°33'0 0.3
2018-Apr-16 19:30N 10°18' W 075°33'0 0.1
2018-Apr-16 18:59N 10°18' W 075°33'0 0.1
2018-Apr-16 18:30N 10°18' W 075°33'0 0.1
2018-Apr-16 17:58N 10°18' W 075°33'0 0.7
2018-Apr-16 17:30N 10°17' W 075°32'0 0.0
2018-Apr-16 17:00N 10°17' W 075°32'0 0.8
2018-Apr-16 16:30N 10°18' W 075°33'0 0.2
2018-Apr-16 16:00N 10°18' W 075°33'0 0.0
2018-Apr-16 15:30N 10°18' W 075°33'1 2.3
2018-Apr-16 15:00N 10°18' W 075°32'0 0.4
2018-Apr-16 14:30N 10°18' W 075°32'1 1.5
2018-Apr-16 14:00N 10°17' W 075°31'2 2.3
2018-Apr-16 13:02N 10°15' W 075°31'0 1.0
2018-Apr-16 12:57N 10°15' W 075°31'2 3.9
2018-Apr-16 12:28N 10°13' W 075°31'0 0.2
2018-Apr-16 11:53N 10°13' W 075°31'0 0.0
2018-Apr-16 11:23N 10°13' W 075°31'0 0.0
2018-Apr-16 10:57N 10°13' W 075°31'0 0.0
2018-Apr-16 10:24N 10°13' W 075°31'0 0.0
2018-Apr-16 09:52N 10°13' W 075°31'0 0.0
2018-Apr-16 09:27N 10°13' W 075°31'0 0.0
2018-Apr-16 08:52N 10°13' W 075°31'1 0.5
2018-Apr-16 07:05N 10°14' W 075°31'1 5.7
2018-Apr-16 07:00N 10°15' W 075°31'3 5.7
2018-Apr-16 06:30N 10°18' W 075°32'1 2.5
2018-Apr-16 06:00N 10°18' W 075°33'0 0.7
2018-Apr-16 05:30N 10°18' W 075°33'1 2.4
2018-Apr-16 04:59N 10°18' W 075°32'2 4.8
2018-Apr-16 04:30N 10°16' W 075°31'1 1.5
2018-Apr-16 04:00N 10°15' W 075°31'0 0.0
2018-Apr-16 03:25N 10°15' W 075°31'2 5.0
2018-Apr-16 02:59N 10°13' W 075°31'0 0.1
2018-Apr-16 02:30N 10°13' W 075°31'0 0.0
2018-Apr-16 01:59N 10°13' W 075°31'0 0.0
2018-Apr-16 01:30N 10°13' W 075°31'0 0.0
2018-Apr-16 00:59N 10°13' W 075°31'0 0.0
2018-Apr-16 00:29N 10°13' W 075°31'2 3.4
2018-Apr-15 23:59N 10°11' W 075°31'  
2018-Apr-11 14:17N 10°09' W 075°30'1 4.0
2018-Apr-11 14:00N 10°10' W 075°30'2 3.0
2018-Apr-11 13:30N 10°11' W 075°31'1 2.0
2018-Apr-11 12:59N 10°12' W 075°31'2 3.7
2018-Apr-11 12:30N 10°14' W 075°31'1 2.6
2018-Apr-11 12:00N 10°15' W 075°31'1 2.4
2018-Apr-11 11:30N 10°17' W 075°31'1 2.9
2018-Apr-11 11:00N 10°18' W 075°32'1 2.4
2018-Apr-11 10:30N 10°19' W 075°33'1 2.0
2018-Apr-11 10:00N 10°18' W 075°33'0 0.0
2018-Apr-11 09:28N 10°18' W 075°33'0 0.0
2018-Apr-11 08:51N 10°18' W 075°33'0 0.0
2018-Apr-11 08:30N 10°18' W 075°33'0 0.0
2018-Apr-11 08:00N 10°18' W 075°33'0 0.0
2018-Apr-11 07:29N 10°18' W 075°33'0 0.0
2018-Apr-11 07:00N 10°18' W 075°33'0 0.0
2018-Apr-11 06:30N 10°18' W 075°33'0 0.1
2018-Apr-11 06:00N 10°18' W 075°33'0 0.2
2018-Apr-11 05:30N 10°18' W 075°33'0 0.2
2018-Apr-11 05:00N 10°18' W 075°33'0 0.1
2018-Apr-11 04:30N 10°17' W 075°33'0 0.1
2018-Apr-11 03:59N 10°17' W 075°33'0 0.1
2018-Apr-11 03:18N 10°17' W 075°33'0 0.1
2018-Apr-11 03:00N 10°17' W 075°33'0 0.1
2018-Apr-11 02:29N 10°17' W 075°33'0 0.1
2018-Apr-11 01:17N 10°17' W 075°33'0 0.3
2018-Apr-11 01:00N 10°17' W 075°33'0 0.3
2018-Apr-10 23:54N 10°17' W 075°32'  
Track history (hours):
 
Tides and Currents Weather Stations Pressure Air Temp Water Temp Dewpoint Dewpoint Depression Visibility Wind Speed Wind Dir Waves Ship Positions

Impala Gamarra

Last reported at 2018-Apr-20 01:22 UTC. Time now 2018-Apr-26 06:03 UTC.
Position N 10°09' W 075°30'.

Type: Ship. MMSI: 730151803.

Date/timePositionNaut miles runAvg speedWind from/ knotsBaromVisibWave heightAir tempDewpointWater temp
2018-Apr-20 01:22N 10°09' W 075°30'2 4.1
2018-Apr-20 01:00N 10°10' W 075°30'2 3.4
2018-Apr-20 00:30N 10°12' W 075°31'5 3.1
2018-Apr-19 22:56N 10°17' W 075°31'2 0.1
2018-Apr-18 22:14N 10°17' W 075°33'0 0.1
2018-Apr-18 21:54N 10°17' W 075°33'1 1.3
2018-Apr-18 21:29N 10°18' W 075°33'2 3.3
2018-Apr-18 20:57N 10°18' W 075°31'0 0.3
2018-Apr-18 20:30N 10°18' W 075°31'0 0.0
2018-Apr-18 19:55N 10°18' W 075°31'0 0.0
2018-Apr-18 19:22N 10°18' W 075°31'0 0.0
2018-Apr-18 19:00N 10°18' W 075°31'0 0.0
2018-Apr-18 18:30N 10°18' W 075°31'1 1.4
2018-Apr-18 18:00N 10°19' W 075°31'2 3.0
2018-Apr-18 17:28N 10°18' W 075°33'1 1.3
2018-Apr-18 17:00N 10°17' W 075°33'0 0.3
2018-Apr-18 16:30N 10°17' W 075°32'0 0.7
2018-Apr-18 15:58N 10°18' W 075°33'0 0.7
2018-Apr-18 15:28N 10°17' W 075°33'0 0.1
2018-Apr-18 15:00N 10°17' W 075°32'0 1.0
2018-Apr-18 14:30N 10°18' W 075°33'0 0.0
2018-Apr-18 14:00N 10°18' W 075°33'0 0.0
2018-Apr-18 13:30N 10°18' W 075°33'0 0.1
2018-Apr-18 13:00N 10°18' W 075°33'0 0.1
2018-Apr-18 12:30N 10°17' W 075°33'0 0.1
2018-Apr-18 12:00N 10°17' W 075°33'0 0.1
2018-Apr-18 11:29N 10°18' W 075°33'0 0.0
2018-Apr-18 11:00N 10°18' W 075°33'0 0.1
2018-Apr-18 10:30N 10°18' W 075°33'0 0.0
2018-Apr-18 10:00N 10°18' W 075°33'0 0.0
2018-Apr-18 09:30N 10°18' W 075°33'0 0.0
2018-Apr-18 09:00N 10°18' W 075°33'0 0.0
2018-Apr-18 08:30N 10°18' W 075°33'0 0.1
2018-Apr-18 08:00N 10°18' W 075°33'0 0.1
2018-Apr-18 07:30N 10°18' W 075°33'0 0.3
2018-Apr-18 07:00N 10°18' W 075°33'0 0.1
2018-Apr-18 06:30N 10°18' W 075°33'0 0.0
2018-Apr-18 06:00N 10°17' W 075°33'0 0.0
2018-Apr-18 05:30N 10°17' W 075°33'0 0.0
2018-Apr-18 05:00N 10°17' W 075°33'0 0.0
2018-Apr-18 04:30N 10°17' W 075°33'0 0.0
2018-Apr-18 04:00N 10°17' W 075°33'0 0.0
2018-Apr-18 03:30N 10°17' W 075°33'0 0.0
2018-Apr-18 03:00N 10°17' W 075°33'0 0.0
2018-Apr-18 02:30N 10°17' W 075°33'0 0.0
2018-Apr-18 02:00N 10°18' W 075°33'0 0.0
2018-Apr-18 01:30N 10°17' W 075°33'0 0.1
2018-Apr-18 00:59N 10°17' W 075°33'0 0.1
2018-Apr-18 00:30N 10°18' W 075°33'0 0.4
2018-Apr-18 00:00N 10°18' W 075°33'2 4.0
2018-Apr-17 23:28N 10°18' W 075°31'0 0.3
2018-Apr-17 22:46N 10°18' W 075°31'0 0.0
2018-Apr-17 22:12N 10°18' W 075°31'0 0.0
2018-Apr-17 21:54N 10°18' W 075°31'0 0.0
2018-Apr-17 21:30N 10°18' W 075°31'0 0.0
2018-Apr-17 21:00N 10°18' W 075°31'0 0.0
2018-Apr-17 20:30N 10°18' W 075°31'0 0.0
2018-Apr-17 19:34N 10°18' W 075°31'0 0.0
2018-Apr-17 19:18N 10°18' W 075°31'0 0.0
2018-Apr-17 19:00N 10°18' W 075°31'0 0.0
2018-Apr-17 18:30N 10°18' W 075°31'0 0.0
2018-Apr-17 17:58N 10°18' W 075°31'0 0.0
2018-Apr-17 17:30N 10°18' W 075°31'0 0.0
2018-Apr-17 17:00N 10°18' W 075°31'0 0.0
2018-Apr-17 16:25N 10°18' W 075°31'1 3.5
2018-Apr-17 16:00N 10°19' W 075°32'2 3.9
2018-Apr-17 15:30N 10°17' W 075°32'0 0.0
2018-Apr-17 15:00N 10°17' W 075°32'0 0.2
2018-Apr-17 14:28N 10°17' W 075°33'0 0.7
2018-Apr-17 14:00N 10°18' W 075°33'0 0.1
2018-Apr-17 13:27N 10°17' W 075°33'0 0.2
2018-Apr-17 13:00N 10°18' W 075°33'0 0.0
2018-Apr-17 12:29N 10°18' W 075°33'0 0.1
2018-Apr-17 12:00N 10°18' W 075°33'0 0.0
2018-Apr-17 11:30N 10°18' W 075°33'0 0.1
2018-Apr-17 11:00N 10°18' W 075°33'0 0.3
2018-Apr-17 10:30N 10°18' W 075°33'0 0.0
2018-Apr-17 10:00N 10°18' W 075°33'0 0.0
2018-Apr-17 09:29N 10°18' W 075°33'0 0.0
2018-Apr-17 09:00N 10°18' W 075°33'0 0.1
2018-Apr-17 08:30N 10°18' W 075°33'1 3.0
2018-Apr-17 08:00N 10°19' W 075°32'1 2.9
2018-Apr-17 07:30N 10°18' W 075°32'2 4.9
2018-Apr-17 07:00N 10°15' W 075°31'0 0.2
2018-Apr-17 06:30N 10°15' W 075°31'0 0.0
2018-Apr-17 05:52N 10°15' W 075°31'0 0.0
2018-Apr-17 05:28N 10°15' W 075°31'0 0.0
2018-Apr-17 04:58N 10°15' W 075°31'0 0.0
2018-Apr-17 04:30N 10°15' W 075°31'0 0.0
2018-Apr-17 03:58N 10°15' W 075°31'0 0.0
2018-Apr-17 03:25N 10°15' W 075°31'0 0.0
2018-Apr-17 02:40N 10°15' W 075°31'0 0.0
2018-Apr-17 02:30N 10°15' W 075°31'0 0.0
2018-Apr-17 01:59N 10°15' W 075°31'0 0.0
2018-Apr-17 01:30N 10°15' W 075°31'0 0.0
2018-Apr-17 00:58N 10°15' W 075°31'2 4.2
2018-Apr-17 00:30N 10°17' W 075°31'2 3.6
2018-Apr-17 00:00N 10°19' W 075°33'1 2.4
2018-Apr-16 23:29N 10°17' W 075°32'0 0.2
2018-Apr-16 22:59N 10°17' W 075°33'0 0.6
2018-Apr-16 22:30N 10°17' W 075°33'0 0.1
2018-Apr-16 22:00N 10°17' W 075°33'0 0.2
2018-Apr-16 21:30N 10°17' W 075°33'0 0.2
2018-Apr-16 21:00N 10°18' W 075°33'0 0.2
2018-Apr-16 20:30N 10°17' W 075°33'0 0.2
2018-Apr-16 19:59N 10°18' W 075°33'0 0.3
2018-Apr-16 19:30N 10°18' W 075°33'0 0.1
2018-Apr-16 18:59N 10°18' W 075°33'0 0.1
2018-Apr-16 18:30N 10°18' W 075°33'0 0.1
2018-Apr-16 17:58N 10°18' W 075°33'0 0.7
2018-Apr-16 17:30N 10°17' W 075°32'0 0.0
2018-Apr-16 17:00N 10°17' W 075°32'0 0.8
2018-Apr-16 16:30N 10°18' W 075°33'0 0.2
2018-Apr-16 16:00N 10°18' W 075°33'0 0.0
2018-Apr-16 15:30N 10°18' W 075°33'1 2.3
2018-Apr-16 15:00N 10°18' W 075°32'0 0.4
2018-Apr-16 14:30N 10°18' W 075°32'1 1.5
2018-Apr-16 14:00N 10°17' W 075°31'2 2.3
2018-Apr-16 13:02N 10°15' W 075°31'0 1.0
2018-Apr-16 12:57N 10°15' W 075°31'2 3.9
2018-Apr-16 12:28N 10°13' W 075°31'0 0.2
2018-Apr-16 11:53N 10°13' W 075°31'0 0.0
2018-Apr-16 11:23N 10°13' W 075°31'0 0.0
2018-Apr-16 10:57N 10°13' W 075°31'0 0.0
2018-Apr-16 10:24N 10°13' W 075°31'0 0.0
2018-Apr-16 09:52N 10°13' W 075°31'0 0.0
2018-Apr-16 09:27N 10°13' W 075°31'0 0.0
2018-Apr-16 08:52N 10°13' W 075°31'1 0.5
2018-Apr-16 07:05N 10°14' W 075°31'1 5.7
2018-Apr-16 07:00N 10°15' W 075°31'3 5.7
2018-Apr-16 06:30N 10°18' W 075°32'1 2.5
2018-Apr-16 06:00N 10°18' W 075°33'0 0.7
2018-Apr-16 05:30N 10°18' W 075°33'1 2.4
2018-Apr-16 04:59N 10°18' W 075°32'2 4.8
2018-Apr-16 04:30N 10°16' W 075°31'1 1.5
2018-Apr-16 04:00N 10°15' W 075°31'0 0.0
2018-Apr-16 03:25N 10°15' W 075°31'2 5.0
2018-Apr-16 02:59N 10°13' W 075°31'0 0.1
2018-Apr-16 02:30N 10°13' W 075°31'0 0.0
2018-Apr-16 01:59N 10°13' W 075°31'0 0.0
2018-Apr-16 01:30N 10°13' W 075°31'0 0.0
2018-Apr-16 00:59N 10°13' W 075°31'0 0.0
2018-Apr-16 00:29N 10°13' W 075°31'2 3.4
2018-Apr-15 23:59N 10°11' W 075°31'  
2018-Apr-11 14:17N 10°09' W 075°30'1 4.0
2018-Apr-11 14:00N 10°10' W 075°30'2 3.0
2018-Apr-11 13:30N 10°11' W 075°31'1 2.0
2018-Apr-11 12:59N 10°12' W 075°31'2 3.7
2018-Apr-11 12:30N 10°14' W 075°31'1 2.6
2018-Apr-11 12:00N 10°15' W 075°31'1 2.4
2018-Apr-11 11:30N 10°17' W 075°31'1 2.9
2018-Apr-11 11:00N 10°18' W 075°32'1 2.4
2018-Apr-11 10:30N 10°19' W 075°33'1 2.0
2018-Apr-11 10:00N 10°18' W 075°33'0 0.0
2018-Apr-11 09:28N 10°18' W 075°33'0 0.0
2018-Apr-11 08:51N 10°18' W 075°33'0 0.0
2018-Apr-11 08:30N 10°18' W 075°33'0 0.0
2018-Apr-11 08:00N 10°18' W 075°33'0 0.0
2018-Apr-11 07:29N 10°18' W 075°33'0 0.0
2018-Apr-11 07:00N 10°18' W 075°33'0 0.0
2018-Apr-11 06:30N 10°18' W 075°33'0 0.1
2018-Apr-11 06:00N 10°18' W 075°33'0 0.2
2018-Apr-11 05:30N 10°18' W 075°33'0 0.2
2018-Apr-11 05:00N 10°18' W 075°33'0 0.1
2018-Apr-11 04:30N 10°17' W 075°33'0 0.1
2018-Apr-11 03:59N 10°17' W 075°33'0 0.1
2018-Apr-11 03:18N 10°17' W 075°33'0 0.1
2018-Apr-11 03:00N 10°17' W 075°33'0 0.1
2018-Apr-11 02:29N 10°17' W 075°33'0 0.1
2018-Apr-11 01:17N 10°17' W 075°33'0 0.3
2018-Apr-11 01:00N 10°17' W 075°33'0 0.3
2018-Apr-10 23:54N 10°17' W 075°32'  

Dump ship's entire track history